sensor_id;sensor_type;location;lat;lon;timestamp;temperature;humidity
3418;DHT22;1722;51.316;12.370;2022-11-03T00:00:35;10.60;80.50
3418;DHT22;1722;51.316;12.370;2022-11-03T00:03:03;10.70;80.40
3418;DHT22;1722;51.316;12.370;2022-11-03T00:05:31;10.70;79.70
3418;DHT22;1722;51.316;12.370;2022-11-03T00:08:16;10.70;79.30
3418;DHT22;1722;51.316;12.370;2022-11-03T00:10:43;10.80;79.00
3418;DHT22;1722;51.316;12.370;2022-11-03T00:13:11;10.80;78.70
3418;DHT22;1722;51.316;12.370;2022-11-03T00:15:47;10.80;78.70
3418;DHT22;1722;51.316;12.370;2022-11-03T00:18:15;10.90;78.60
3418;DHT22;1722;51.316;12.370;2022-11-03T00:20:43;10.90;78.60
3418;DHT22;1722;51.316;12.370;2022-11-03T00:23:10;10.90;78.70
3418;DHT22;1722;51.316;12.370;2022-11-03T00:25:38;10.80;78.70
3418;DHT22;1722;51.316;12.370;2022-11-03T00:28:05;10.80;78.60
3418;DHT22;1722;51.316;12.370;2022-11-03T00:30:33;10.90;78.60
3418;DHT22;1722;51.316;12.370;2022-11-03T00:33:00;10.90;78.60
3418;DHT22;1722;51.316;12.370;2022-11-03T00:35:29;10.80;78.80
3418;DHT22;1722;51.316;12.370;2022-11-03T00:37:56;10.80;78.90
3418;DHT22;1722;51.316;12.370;2022-11-03T00:40:24;10.80;78.80
3418;DHT22;1722;51.316;12.370;2022-11-03T00:42:51;10.70;79.10
3418;DHT22;1722;51.316;12.370;2022-11-03T00:45:19;10.80;79.30
3418;DHT22;1722;51.316;12.370;2022-11-03T00:47:46;10.70;79.40
3418;DHT22;1722;51.316;12.370;2022-11-03T00:50:29;10.70;79.20
3418;DHT22;1722;51.316;12.370;2022-11-03T00:52:56;10.70;79.60
3418;DHT22;1722;51.316;12.370;2022-11-03T00:55:23;10.70;79.50
3418;DHT22;1722;51.316;12.370;2022-11-03T00:57:52;10.70;80.00
3418;DHT22;1722;51.316;12.370;2022-11-03T01:00:19;10.70;79.90
3418;DHT22;1722;51.316;12.370;2022-11-03T01:02:47;10.50;81.20
3418;DHT22;1722;51.316;12.370;2022-11-03T01:05:14;10.30;82.10
3418;DHT22;1722;51.316;12.370;2022-11-03T01:08:00;10.30;81.90
3418;DHT22;1722;51.316;12.370;2022-11-03T01:10:30;10.30;82.30
3418;DHT22;1722;51.316;12.370;2022-11-03T01:12:57;10.30;82.20
3418;DHT22;1722;51.316;12.370;2022-11-03T01:15:25;10.40;81.70
3418;DHT22;1722;51.316;12.370;2022-11-03T01:17:52;10.40;81.60
3418;DHT22;1722;51.316;12.370;2022-11-03T01:20:19;10.40;81.80
3418;DHT22;1722;51.316;12.370;2022-11-03T01:22:47;10.30;82.20
3418;DHT22;1722;51.316;12.370;2022-11-03T01:25:16;10.30;81.80
3418;DHT22;1722;51.316;12.370;2022-11-03T01:27:43;10.30;81.70
3418;DHT22;1722;51.316;12.370;2022-11-03T01:30:11;10.40;81.70
3418;DHT22;1722;51.316;12.370;2022-11-03T01:32:38;10.40;81.40
3418;DHT22;1722;51.316;12.370;2022-11-03T01:35:06;10.40;81.30
3418;DHT22;1722;51.316;12.370;2022-11-03T01:37:34;10.30;82.00
3418;DHT22;1722;51.316;12.370;2022-11-03T01:40:01;10.40;81.60
3418;DHT22;1722;51.316;12.370;2022-11-03T01:42:30;10.40;81.40
3418;DHT22;1722;51.316;12.370;2022-11-03T01:44:58;10.30;83.40
3418;DHT22;1722;51.316;12.370;2022-11-03T01:47:27;10.30;82.70
3418;DHT22;1722;51.316;12.370;2022-11-03T01:49:59;10.20;82.50
3418;DHT22;1722;51.316;12.370;2022-11-03T01:52:30;10.20;83.90
3418;DHT22;1722;51.316;12.370;2022-11-03T01:55:06;10.10;84.40
3418;DHT22;1722;51.316;12.370;2022-11-03T01:57:38;9.90;84.30
3418;DHT22;1722;51.316;12.370;2022-11-03T02:00:08;9.90;84.80
3418;DHT22;1722;51.316;12.370;2022-11-03T02:02:36;10.00;84.10
3418;DHT22;1722;51.316;12.370;2022-11-03T02:05:04;9.90;85.60
3418;DHT22;1722;51.316;12.370;2022-11-03T02:07:34;9.80;85.10
3418;DHT22;1722;51.316;12.370;2022-11-03T02:10:04;9.80;85.50
3418;DHT22;1722;51.316;12.370;2022-11-03T02:12:32;9.80;85.30
3418;DHT22;1722;51.316;12.370;2022-11-03T02:15:05;9.60;86.50
3418;DHT22;1722;51.316;12.370;2022-11-03T02:17:35;9.60;86.20
3418;DHT22;1722;51.316;12.370;2022-11-03T02:20:06;9.60;86.10
3418;DHT22;1722;51.316;12.370;2022-11-03T02:22:54;9.60;87.50
3418;DHT22;1722;51.316;12.370;2022-11-03T02:25:45;9.60;86.20
3418;DHT22;1722;51.316;12.370;2022-11-03T02:28:15;9.50;87.30
3418;DHT22;1722;51.316;12.370;2022-11-03T02:30:52;9.60;86.20
3418;DHT22;1722;51.316;12.370;2022-11-03T02:33:42;9.60;85.90
3418;DHT22;1722;51.316;12.370;2022-11-03T02:36:17;9.70;86.00
3418;DHT22;1722;51.316;12.370;2022-11-03T02:38:51;9.80;85.30
3418;DHT22;1722;51.316;12.370;2022-11-03T02:41:21;9.80;85.00
3418;DHT22;1722;51.316;12.370;2022-11-03T02:43:50;9.80;85.10
3418;DHT22;1722;51.316;12.370;2022-11-03T02:46:18;9.80;84.30
3418;DHT22;1722;51.316;12.370;2022-11-03T02:48:47;9.80;85.10
3418;DHT22;1722;51.316;12.370;2022-11-03T02:51:14;9.80;84.00
3418;DHT22;1722;51.316;12.370;2022-11-03T02:53:46;9.90;83.60
3418;DHT22;1722;51.316;12.370;2022-11-03T02:56:17;9.90;83.40
3418;DHT22;1722;51.316;12.370;2022-11-03T02:58:51;9.90;83.30
3418;DHT22;1722;51.316;12.370;2022-11-03T03:01:24;9.90;83.30
3418;DHT22;1722;51.316;12.370;2022-11-03T03:03:56;9.90;83.30
3418;DHT22;1722;51.316;12.370;2022-11-03T03:06:27;9.90;83.50
3418;DHT22;1722;51.316;12.370;2022-11-03T03:08:59;9.90;83.40
3418;DHT22;1722;51.316;12.370;2022-11-03T03:11:28;9.90;83.30
3418;DHT22;1722;51.316;12.370;2022-11-03T03:14:10;9.90;83.30
3418;DHT22;1722;51.316;12.370;2022-11-03T03:16:46;9.90;83.20
3418;DHT22;1722;51.316;12.370;2022-11-03T03:19:21;9.90;83.10
3418;DHT22;1722;51.316;12.370;2022-11-03T03:21:52;9.90;83.30
3418;DHT22;1722;51.316;12.370;2022-11-03T03:24:30;9.90;84.40
3418;DHT22;1722;51.316;12.370;2022-11-03T03:27:01;9.80;83.70
3418;DHT22;1722;51.316;12.370;2022-11-03T03:29:35;9.80;83.50
3418;DHT22;1722;51.316;12.370;2022-11-03T03:32:07;9.90;83.60
3418;DHT22;1722;51.316;12.370;2022-11-03T03:34:38;9.90;83.50
3418;DHT22;1722;51.316;12.370;2022-11-03T03:37:06;9.90;83.60
3418;DHT22;1722;51.316;12.370;2022-11-03T03:39:37;9.80;83.70
3418;DHT22;1722;51.316;12.370;2022-11-03T03:42:09;9.90;83.70
3418;DHT22;1722;51.316;12.370;2022-11-03T03:44:39;9.80;84.00
3418;DHT22;1722;51.316;12.370;2022-11-03T03:47:13;9.80;84.00
3418;DHT22;1722;51.316;12.370;2022-11-03T03:49:43;9.80;85.40
3418;DHT22;1722;51.316;12.370;2022-11-03T03:52:11;9.70;84.80
3418;DHT22;1722;51.316;12.370;2022-11-03T03:54:39;9.70;85.30
3418;DHT22;1722;51.316;12.370;2022-11-03T03:57:09;9.70;84.90
3418;DHT22;1722;51.316;12.370;2022-11-03T03:59:41;9.70;84.30
3418;DHT22;1722;51.316;12.370;2022-11-03T04:02:09;9.60;86.10
3418;DHT22;1722;51.316;12.370;2022-11-03T04:04:37;9.60;85.30
3418;DHT22;1722;51.316;12.370;2022-11-03T04:07:05;9.50;87.10
3418;DHT22;1722;51.316;12.370;2022-11-03T04:09:50;9.40;86.70
3418;DHT22;1722;51.316;12.370;2022-11-03T04:12:17;9.40;86.90
3418;DHT22;1722;51.316;12.370;2022-11-03T04:15:05;9.10;88.70
3418;DHT22;1722;51.316;12.370;2022-11-03T04:17:50;9.20;88.30
3418;DHT22;1722;51.316;12.370;2022-11-03T04:20:35;9.20;87.00
3418;DHT22;1722;51.316;12.370;2022-11-03T04:23:19;9.30;87.40
3418;DHT22;1722;51.316;12.370;2022-11-03T04:25:49;9.30;87.30
3418;DHT22;1722;51.316;12.370;2022-11-03T04:28:16;9.20;87.70
3418;DHT22;1722;51.316;12.370;2022-11-03T04:30:45;9.30;88.00
3418;DHT22;1722;51.316;12.370;2022-11-03T04:33:14;9.30;87.40
3418;DHT22;1722;51.316;12.370;2022-11-03T04:35:43;9.30;87.20
3418;DHT22;1722;51.316;12.370;2022-11-03T04:38:20;9.30;87.00
3418;DHT22;1722;51.316;12.370;2022-11-03T04:40:52;9.30;86.80
3418;DHT22;1722;51.316;12.370;2022-11-03T04:43:22;9.40;86.20
3418;DHT22;1722;51.316;12.370;2022-11-03T04:45:52;9.40;86.80
3418;DHT22;1722;51.316;12.370;2022-11-03T04:48:21;9.40;85.60
3418;DHT22;1722;51.316;12.370;2022-11-03T04:50:51;9.50;85.40
3418;DHT22;1722;51.316;12.370;2022-11-03T04:53:21;9.40;85.60
3418;DHT22;1722;51.316;12.370;2022-11-03T04:55:52;9.50;85.50
3418;DHT22;1722;51.316;12.370;2022-11-03T04:58:21;9.40;86.50
3418;DHT22;1722;51.316;12.370;2022-11-03T05:00:52;9.40;85.60
3418;DHT22;1722;51.316;12.370;2022-11-03T05:03:22;9.40;85.30
3418;DHT22;1722;51.316;12.370;2022-11-03T05:05:51;9.50;85.20
3418;DHT22;1722;51.316;12.370;2022-11-03T05:08:19;9.40;85.10
3418;DHT22;1722;51.316;12.370;2022-11-03T05:10:47;9.50;84.90
3418;DHT22;1722;51.316;12.370;2022-11-03T05:13:20;9.50;84.80
3418;DHT22;1722;51.316;12.370;2022-11-03T05:15:52;9.50;84.80
3418;DHT22;1722;51.316;12.370;2022-11-03T05:18:26;9.50;84.80
3418;DHT22;1722;51.316;12.370;2022-11-03T05:20:58;9.50;84.90
3418;DHT22;1722;51.316;12.370;2022-11-03T05:23:29;9.50;84.50
3418;DHT22;1722;51.316;12.370;2022-11-03T05:26:02;9.50;85.30
3418;DHT22;1722;51.316;12.370;2022-11-03T05:28:31;9.40;85.60
3418;DHT22;1722;51.316;12.370;2022-11-03T05:31:01;9.40;85.10
3418;DHT22;1722;51.316;12.370;2022-11-03T05:33:41;9.40;85.20
3418;DHT22;1722;51.316;12.370;2022-11-03T05:36:13;9.40;85.20
3418;DHT22;1722;51.316;12.370;2022-11-03T05:38:40;9.40;85.10
3418;DHT22;1722;51.316;12.370;2022-11-03T05:41:14;9.40;85.10
3418;DHT22;1722;51.316;12.370;2022-11-03T05:43:42;9.30;85.90
3418;DHT22;1722;51.316;12.370;2022-11-03T05:46:11;9.30;86.40
3418;DHT22;1722;51.316;12.370;2022-11-03T05:48:41;9.20;86.30
3418;DHT22;1722;51.316;12.370;2022-11-03T05:51:16;9.20;85.40
3418;DHT22;1722;51.316;12.370;2022-11-03T05:53:47;9.30;85.80
3418;DHT22;1722;51.316;12.370;2022-11-03T05:56:18;9.20;85.90
3418;DHT22;1722;51.316;12.370;2022-11-03T05:58:49;9.10;86.40
3418;DHT22;1722;51.316;12.370;2022-11-03T06:01:23;9.10;86.70
3418;DHT22;1722;51.316;12.370;2022-11-03T06:03:52;9.00;86.70
3418;DHT22;1722;51.316;12.370;2022-11-03T06:06:23;8.80;88.40
3418;DHT22;1722;51.316;12.370;2022-11-03T06:08:51;8.80;87.70
3418;DHT22;1722;51.316;12.370;2022-11-03T06:11:26;8.90;87.00
3418;DHT22;1722;51.316;12.370;2022-11-03T06:13:55;8.90;87.20
3418;DHT22;1722;51.316;12.370;2022-11-03T06:16:36;9.00;86.60
3418;DHT22;1722;51.316;12.370;2022-11-03T06:19:15;9.00;87.00
3418;DHT22;1722;51.316;12.370;2022-11-03T06:21:46;8.90;87.40
3418;DHT22;1722;51.316;12.370;2022-11-03T06:24:16;8.80;87.90
3418;DHT22;1722;51.316;12.370;2022-11-03T06:26:45;8.80;87.50
3418;DHT22;1722;51.316;12.370;2022-11-03T06:29:15;8.70;87.80
3418;DHT22;1722;51.316;12.370;2022-11-03T06:31:47;8.70;88.40
3418;DHT22;1722;51.316;12.370;2022-11-03T06:34:36;8.70;88.30
3418;DHT22;1722;51.316;12.370;2022-11-03T06:37:17;8.70;88.40
3418;DHT22;1722;51.316;12.370;2022-11-03T06:39:46;8.60;88.30
3418;DHT22;1722;51.316;12.370;2022-11-03T06:42:15;8.60;89.20
3418;DHT22;1722;51.316;12.370;2022-11-03T06:44:45;8.60;89.90
3418;DHT22;1722;51.316;12.370;2022-11-03T06:47:20;8.60;89.20
3418;DHT22;1722;51.316;12.370;2022-11-03T06:49:48;8.70;88.60
3418;DHT22;1722;51.316;12.370;2022-11-03T06:52:23;8.70;89.30
3418;DHT22;1722;51.316;12.370;2022-11-03T06:54:54;8.70;90.00
3418;DHT22;1722;51.316;12.370;2022-11-03T06:57:27;8.70;89.30
3418;DHT22;1722;51.316;12.370;2022-11-03T06:59:55;8.70;89.20
3418;DHT22;1722;51.316;12.370;2022-11-03T07:02:42;8.70;89.30
3418;DHT22;1722;51.316;12.370;2022-11-03T07:05:20;8.70;89.80
3418;DHT22;1722;51.316;12.370;2022-11-03T07:07:48;8.80;88.60
3418;DHT22;1722;51.316;12.370;2022-11-03T07:10:16;8.80;89.70
3418;DHT22;1722;51.316;12.370;2022-11-03T07:12:44;8.60;90.40
3418;DHT22;1722;51.316;12.370;2022-11-03T07:15:19;8.70;89.90
3418;DHT22;1722;51.316;12.370;2022-11-03T07:17:50;8.70;90.30
3418;DHT22;1722;51.316;12.370;2022-11-03T07:20:18;8.70;90.10
3418;DHT22;1722;51.316;12.370;2022-11-03T07:22:47;8.70;89.10
3418;DHT22;1722;51.316;12.370;2022-11-03T07:25:17;8.80;90.40
3418;DHT22;1722;51.316;12.370;2022-11-03T07:27:46;8.80;89.60
3418;DHT22;1722;51.316;12.370;2022-11-03T07:30:18;8.90;89.30
3418;DHT22;1722;51.316;12.370;2022-11-03T07:32:48;9.00;89.20
3418;DHT22;1722;51.316;12.370;2022-11-03T07:35:32;9.00;89.50
3418;DHT22;1722;51.316;12.370;2022-11-03T07:38:02;9.00;90.00
3418;DHT22;1722;51.316;12.370;2022-11-03T07:40:31;9.00;89.20
3418;DHT22;1722;51.316;12.370;2022-11-03T07:43:07;9.10;88.20
3418;DHT22;1722;51.316;12.370;2022-11-03T07:45:37;9.10;89.10
3418;DHT22;1722;51.316;12.370;2022-11-03T07:48:17;9.20;87.90
3418;DHT22;1722;51.316;12.370;2022-11-03T07:50:47;9.20;88.80
3418;DHT22;1722;51.316;12.370;2022-11-03T07:53:18;9.20;89.30
3418;DHT22;1722;51.316;12.370;2022-11-03T07:55:47;9.30;87.50
3418;DHT22;1722;51.316;12.370;2022-11-03T07:58:20;9.30;87.50
3418;DHT22;1722;51.316;12.370;2022-11-03T08:00:49;9.30;87.20
3418;DHT22;1722;51.316;12.370;2022-11-03T08:03:26;9.40;87.90
3418;DHT22;1722;51.316;12.370;2022-11-03T08:05:55;9.40;88.50
3418;DHT22;1722;51.316;12.370;2022-11-03T08:08:22;9.50;87.80
3418;DHT22;1722;51.316;12.370;2022-11-03T08:10:50;9.50;88.40
3418;DHT22;1722;51.316;12.370;2022-11-03T08:13:17;9.50;87.60
3418;DHT22;1722;51.316;12.370;2022-11-03T08:15:44;9.50;88.60
3418;DHT22;1722;51.316;12.370;2022-11-03T08:18:12;9.50;89.70
3418;DHT22;1722;51.316;12.370;2022-11-03T08:20:39;9.50;88.60
3418;DHT22;1722;51.316;12.370;2022-11-03T08:23:08;9.60;88.50
3418;DHT22;1722;51.316;12.370;2022-11-03T08:25:36;9.60;87.10
3418;DHT22;1722;51.316;12.370;2022-11-03T08:28:04;9.70;88.20
3418;DHT22;1722;51.316;12.370;2022-11-03T08:30:32;9.60;88.70
3418;DHT22;1722;51.316;12.370;2022-11-03T08:33:00;9.70;89.20
3418;DHT22;1722;51.316;12.370;2022-11-03T08:35:27;9.70;88.10
3418;DHT22;1722;51.316;12.370;2022-11-03T08:37:55;9.70;88.50
3418;DHT22;1722;51.316;12.370;2022-11-03T08:40:24;9.80;88.50
3418;DHT22;1722;51.316;12.370;2022-11-03T08:42:51;9.90;87.60
3418;DHT22;1722;51.316;12.370;2022-11-03T08:45:19;9.90;88.30
3418;DHT22;1722;51.316;12.370;2022-11-03T08:47:46;9.90;88.30
3418;DHT22;1722;51.316;12.370;2022-11-03T08:50:14;9.90;87.80
3418;DHT22;1722;51.316;12.370;2022-11-03T08:52:41;10.00;87.80
3418;DHT22;1722;51.316;12.370;2022-11-03T08:55:09;10.00;87.60
3418;DHT22;1722;51.316;12.370;2022-11-03T08:57:38;10.10;87.70
3418;DHT22;1722;51.316;12.370;2022-11-03T09:00:06;10.20;86.90
3418;DHT22;1722;51.316;12.370;2022-11-03T09:02:35;10.30;87.20
3418;DHT22;1722;51.316;12.370;2022-11-03T09:05:02;10.30;86.70
3418;DHT22;1722;51.316;12.370;2022-11-03T09:07:31;10.40;86.40
3418;DHT22;1722;51.316;12.370;2022-11-03T09:09:58;10.40;87.00
3418;DHT22;1722;51.316;12.370;2022-11-03T09:12:26;10.50;85.80
3418;DHT22;1722;51.316;12.370;2022-11-03T09:14:54;10.50;85.80
3418;DHT22;1722;51.316;12.370;2022-11-03T09:17:22;10.50;85.60
3418;DHT22;1722;51.316;12.370;2022-11-03T09:19:49;10.60;85.40
3418;DHT22;1722;51.316;12.370;2022-11-03T09:22:17;10.60;85.10
3418;DHT22;1722;51.316;12.370;2022-11-03T09:24:44;10.70;84.90
3418;DHT22;1722;51.316;12.370;2022-11-03T09:27:12;10.80;85.00
3418;DHT22;1722;51.316;12.370;2022-11-03T09:29:39;10.80;85.00
3418;DHT22;1722;51.316;12.370;2022-11-03T09:32:08;10.80;84.80
3418;DHT22;1722;51.316;12.370;2022-11-03T09:34:36;10.90;84.20
3418;DHT22;1722;51.316;12.370;2022-11-03T09:37:03;10.90;84.30
3418;DHT22;1722;51.316;12.370;2022-11-03T09:39:30;11.00;84.20
3418;DHT22;1722;51.316;12.370;2022-11-03T09:41:59;11.10;84.60
3418;DHT22;1722;51.316;12.370;2022-11-03T09:44:30;11.10;84.00
3418;DHT22;1722;51.316;12.370;2022-11-03T09:46:59;11.20;83.80
3418;DHT22;1722;51.316;12.370;2022-11-03T09:49:30;11.30;83.30
3418;DHT22;1722;51.316;12.370;2022-11-03T09:51:58;11.30;82.90
3418;DHT22;1722;51.316;12.370;2022-11-03T09:54:26;11.30;82.70
3418;DHT22;1722;51.316;12.370;2022-11-03T09:56:56;11.40;82.90
3418;DHT22;1722;51.316;12.370;2022-11-03T09:59:24;11.40;82.50
3418;DHT22;1722;51.316;12.370;2022-11-03T10:01:52;11.50;82.30
3418;DHT22;1722;51.316;12.370;2022-11-03T10:04:23;11.50;81.90
3418;DHT22;1722;51.316;12.370;2022-11-03T10:06:53;11.50;81.80
3418;DHT22;1722;51.316;12.370;2022-11-03T10:09:21;11.50;81.90
3418;DHT22;1722;51.316;12.370;2022-11-03T10:11:52;11.60;82.00
3418;DHT22;1722;51.316;12.370;2022-11-03T10:14:20;11.70;82.10
3418;DHT22;1722;51.316;12.370;2022-11-03T10:16:52;11.80;81.40
3418;DHT22;1722;51.316;12.370;2022-11-03T10:19:22;11.80;81.30
3418;DHT22;1722;51.316;12.370;2022-11-03T10:21:50;11.90;81.60
3418;DHT22;1722;51.316;12.370;2022-11-03T10:24:19;12.00;81.80
3418;DHT22;1722;51.316;12.370;2022-11-03T10:26:48;12.00;81.30
3418;DHT22;1722;51.316;12.370;2022-11-03T10:29:19;12.20;80.00
3418;DHT22;1722;51.316;12.370;2022-11-03T10:31:48;12.20;79.30
3418;DHT22;1722;51.316;12.370;2022-11-03T10:34:25;12.30;78.60
3418;DHT22;1722;51.316;12.370;2022-11-03T10:37:13;12.30;78.10
3418;DHT22;1722;51.316;12.370;2022-11-03T10:39:44;12.30;78.10
3418;DHT22;1722;51.316;12.370;2022-11-03T10:42:21;12.50;78.10
3418;DHT22;1722;51.316;12.370;2022-11-03T10:45:09;12.50;76.90
3418;DHT22;1722;51.316;12.370;2022-11-03T10:48:00;12.60;76.80
3418;DHT22;1722;51.316;12.370;2022-11-03T10:50:33;12.60;76.40
3418;DHT22;1722;51.316;12.370;2022-11-03T10:53:15;12.70;76.40
3418;DHT22;1722;51.316;12.370;2022-11-03T10:55:52;12.80;75.80
3418;DHT22;1722;51.316;12.370;2022-11-03T10:58:26;12.80;75.10
3418;DHT22;1722;51.316;12.370;2022-11-03T11:01:07;12.90;75.30
3418;DHT22;1722;51.316;12.370;2022-11-03T11:03:48;13.00;74.80
3418;DHT22;1722;51.316;12.370;2022-11-03T11:06:22;13.20;74.90
3418;DHT22;1722;51.316;12.370;2022-11-03T11:08:59;13.30;74.30
3418;DHT22;1722;51.316;12.370;2022-11-03T11:11:32;13.30;73.90
3418;DHT22;1722;51.316;12.370;2022-11-03T11:14:34;13.40;73.00
3418;DHT22;1722;51.316;12.370;2022-11-03T11:17:03;13.60;73.20
3418;DHT22;1722;51.316;12.370;2022-11-03T11:20:17;13.80;72.80
3418;DHT22;1722;51.316;12.370;2022-11-03T11:22:52;13.90;72.80
3418;DHT22;1722;51.316;12.370;2022-11-03T11:26:04;14.10;72.00
3418;DHT22;1722;51.316;12.370;2022-11-03T11:28:45;14.20;72.10
3418;DHT22;1722;51.316;12.370;2022-11-03T11:34:38;14.70;70.90
3418;DHT22;1722;51.316;12.370;2022-11-03T11:37:31;14.90;70.60
3418;DHT22;1722;51.316;12.370;2022-11-03T11:39:59;15.00;70.40
3418;DHT22;1722;51.316;12.370;2022-11-03T11:42:26;15.10;70.90
3418;DHT22;1722;51.316;12.370;2022-11-03T11:45:02;15.20;71.10
3418;DHT22;1722;51.316;12.370;2022-11-03T11:50:27;15.30;70.90
3418;DHT22;1722;51.316;12.370;2022-11-03T11:53:02;15.40;71.20
3418;DHT22;1722;51.316;12.370;2022-11-03T11:55:37;15.50;70.70
3418;DHT22;1722;51.316;12.370;2022-11-03T11:58:14;15.60;70.20
3418;DHT22;1722;51.316;12.370;2022-11-03T12:00:53;15.80;70.10
3418;DHT22;1722;51.316;12.370;2022-11-03T12:03:25;16.00;68.70
3418;DHT22;1722;51.316;12.370;2022-11-03T12:05:53;16.10;68.60
3418;DHT22;1722;51.316;12.370;2022-11-03T12:08:25;16.30;68.20
3418;DHT22;1722;51.316;12.370;2022-11-03T12:10:56;16.40;64.90
3418;DHT22;1722;51.316;12.370;2022-11-03T12:13:40;16.70;64.50
3418;DHT22;1722;51.316;12.370;2022-11-03T12:16:24;16.70;66.70
3418;DHT22;1722;51.316;12.370;2022-11-03T12:18:52;16.80;64.80
3418;DHT22;1722;51.316;12.370;2022-11-03T12:21:44;16.80;64.80
3418;DHT22;1722;51.316;12.370;2022-11-03T12:24:36;17.00;65.50
3418;DHT22;1722;51.316;12.370;2022-11-03T12:27:19;16.90;65.60
3418;DHT22;1722;51.316;12.370;2022-11-03T12:29:47;16.90;65.00
3418;DHT22;1722;51.316;12.370;2022-11-03T12:32:16;16.90;66.40
3418;DHT22;1722;51.316;12.370;2022-11-03T12:34:43;17.00;64.40
3418;DHT22;1722;51.316;12.370;2022-11-03T12:37:11;17.20;63.30
3418;DHT22;1722;51.316;12.370;2022-11-03T12:39:38;17.20;65.20
3418;DHT22;1722;51.316;12.370;2022-11-03T12:42:18;17.20;64.60
3418;DHT22;1722;51.316;12.370;2022-11-03T12:45:35;17.30;64.00
3418;DHT22;1722;51.316;12.370;2022-11-03T12:48:15;17.30;64.90
3418;DHT22;1722;51.316;12.370;2022-11-03T12:51:26;17.30;65.10
3418;DHT22;1722;51.316;12.370;2022-11-03T12:54:00;17.20;65.90
3418;DHT22;1722;51.316;12.370;2022-11-03T12:56:39;17.10;66.30
3418;DHT22;1722;51.316;12.370;2022-11-03T12:59:31;17.10;66.50
3418;DHT22;1722;51.316;12.370;2022-11-03T13:02:13;17.10;66.90
3418;DHT22;1722;51.316;12.370;2022-11-03T13:04:48;17.00;66.80
3418;DHT22;1722;51.316;12.370;2022-11-03T13:07:21;17.00;66.90
3418;DHT22;1722;51.316;12.370;2022-11-03T13:13:01;17.10;66.10
3418;DHT22;1722;51.316;12.370;2022-11-03T13:15:51;17.00;66.70
3418;DHT22;1722;51.316;12.370;2022-11-03T13:18:25;17.00;66.70
3418;DHT22;1722;51.316;12.370;2022-11-03T13:21:34;16.90;66.90
3418;DHT22;1722;51.316;12.370;2022-11-03T13:24:38;16.90;67.20
3418;DHT22;1722;51.316;12.370;2022-11-03T13:27:05;16.80;67.70
3418;DHT22;1722;51.316;12.370;2022-11-03T13:29:40;16.80;68.20
3418;DHT22;1722;51.316;12.370;2022-11-03T13:34:02;16.70;68.40
3418;DHT22;1722;51.316;12.370;2022-11-03T13:36:27;16.70;68.70
3418;DHT22;1722;51.316;12.370;2022-11-03T13:42:03;16.60;68.90
3418;DHT22;1722;51.316;12.370;2022-11-03T13:48:15;16.50;69.50
3418;DHT22;1722;51.316;12.370;2022-11-03T13:54:24;16.40;69.90
3418;DHT22;1722;51.316;12.370;2022-11-03T13:56:59;16.30;70.20
3418;DHT22;1722;51.316;12.370;2022-11-03T13:59:27;16.40;70.50
3418;DHT22;1722;51.316;12.370;2022-11-03T14:08:49;16.30;70.90
3418;DHT22;1722;51.316;12.370;2022-11-03T14:11:55;16.30;71.00
3418;DHT22;1722;51.316;12.370;2022-11-03T14:15:10;16.30;71.00
3418;DHT22;1722;51.316;12.370;2022-11-03T14:18:36;16.30;71.30
3418;DHT22;1722;51.316;12.370;2022-11-03T14:21:19;16.20;71.20
3418;DHT22;1722;51.316;12.370;2022-11-03T14:23:52;16.20;71.20
3418;DHT22;1722;51.316;12.370;2022-11-03T14:26:47;16.20;71.10
3418;DHT22;1722;51.316;12.370;2022-11-03T14:29:29;16.20;71.40
3418;DHT22;1722;51.316;12.370;2022-11-03T14:32:01;16.20;71.70
3418;DHT22;1722;51.316;12.370;2022-11-03T14:34:28;16.10;71.90
3418;DHT22;1722;51.316;12.370;2022-11-03T14:37:05;16.10;72.60
3418;DHT22;1722;51.316;12.370;2022-11-03T14:39:34;16.00;71.90
3418;DHT22;1722;51.316;12.370;2022-11-03T14:42:09;16.00;71.90
3418;DHT22;1722;51.316;12.370;2022-11-03T14:44:49;15.90;71.70
3418;DHT22;1722;51.316;12.370;2022-11-03T14:47:20;16.00;72.00
3418;DHT22;1722;51.316;12.370;2022-11-03T14:50:32;15.90;71.80
3418;DHT22;1722;51.316;12.370;2022-11-03T14:53:32;15.90;71.70
3418;DHT22;1722;51.316;12.370;2022-11-03T14:56:06;15.90;71.80
3418;DHT22;1722;51.316;12.370;2022-11-03T14:58:51;15.80;72.10
3418;DHT22;1722;51.316;12.370;2022-11-03T15:01:19;15.80;72.10
3418;DHT22;1722;51.316;12.370;2022-11-03T15:03:50;15.80;72.30
3418;DHT22;1722;51.316;12.370;2022-11-03T15:06:23;15.70;72.50
3418;DHT22;1722;51.316;12.370;2022-11-03T15:12:34;15.70;72.60
3418;DHT22;1722;51.316;12.370;2022-11-03T15:15:02;15.70;72.60
3418;DHT22;1722;51.316;12.370;2022-11-03T15:17:57;15.60;72.70
3418;DHT22;1722;51.316;12.370;2022-11-03T15:20:52;15.60;72.80
3418;DHT22;1722;51.316;12.370;2022-11-03T15:23:43;15.60;72.80
3418;DHT22;1722;51.316;12.370;2022-11-03T15:26:44;15.50;72.60
3418;DHT22;1722;51.316;12.370;2022-11-03T15:29:11;15.50;72.90
3418;DHT22;1722;51.316;12.370;2022-11-03T15:31:54;15.50;72.80
3418;DHT22;1722;51.316;12.370;2022-11-03T15:34:21;15.50;73.20
3418;DHT22;1722;51.316;12.370;2022-11-03T15:40:31;15.40;73.30
3418;DHT22;1722;51.316;12.370;2022-11-03T15:43:19;15.40;73.40
3418;DHT22;1722;51.316;12.370;2022-11-03T15:46:05;15.40;73.60
3418;DHT22;1722;51.316;12.370;2022-11-03T15:48:36;15.30;73.40
3418;DHT22;1722;51.316;12.370;2022-11-03T15:51:12;15.30;73.50
3418;DHT22;1722;51.316;12.370;2022-11-03T15:53:39;15.20;73.40
3418;DHT22;1722;51.316;12.370;2022-11-03T15:56:39;15.30;73.30
3418;DHT22;1722;51.316;12.370;2022-11-03T15:59:12;15.20;73.50
3418;DHT22;1722;51.316;12.370;2022-11-03T16:01:48;15.20;73.40
3418;DHT22;1722;51.316;12.370;2022-11-03T16:04:38;15.20;73.50
3418;DHT22;1722;51.316;12.370;2022-11-03T16:07:05;15.20;73.30
3418;DHT22;1722;51.316;12.370;2022-11-03T16:10:05;15.10;73.40
3418;DHT22;1722;51.316;12.370;2022-11-03T16:12:37;15.10;73.20
3418;DHT22;1722;51.316;12.370;2022-11-03T16:15:09;15.10;73.50
3418;DHT22;1722;51.316;12.370;2022-11-03T16:17:36;15.10;73.20
3418;DHT22;1722;51.316;12.370;2022-11-03T16:24:04;15.10;73.50
3418;DHT22;1722;51.316;12.370;2022-11-03T16:26:47;15.00;73.50
3418;DHT22;1722;51.316;12.370;2022-11-03T16:29:34;15.00;73.40
3418;DHT22;1722;51.316;12.370;2022-11-03T16:35:36;14.90;73.50
3418;DHT22;1722;51.316;12.370;2022-11-03T16:38:08;14.90;73.70
3418;DHT22;1722;51.316;12.370;2022-11-03T16:40:50;14.90;73.50
3418;DHT22;1722;51.316;12.370;2022-11-03T16:43:51;14.90;73.80
3418;DHT22;1722;51.316;12.370;2022-11-03T16:46:37;14.80;73.90
3418;DHT22;1722;51.316;12.370;2022-11-03T16:49:35;14.80;74.00
3418;DHT22;1722;51.316;12.370;2022-11-03T16:52:12;14.80;74.00
3418;DHT22;1722;51.316;12.370;2022-11-03T16:54:39;14.80;74.10
3418;DHT22;1722;51.316;12.370;2022-11-03T17:03:56;14.60;74.40
3418;DHT22;1722;51.316;12.370;2022-11-03T17:06:38;14.70;74.60
3418;DHT22;1722;51.316;12.370;2022-11-03T17:12:13;14.60;74.70
3418;DHT22;1722;51.316;12.370;2022-11-03T17:17:59;14.60;75.00
3418;DHT22;1722;51.316;12.370;2022-11-03T17:24:33;14.50;75.30
3418;DHT22;1722;51.316;12.370;2022-11-03T17:30:59;14.50;75.40
3418;DHT22;1722;51.316;12.370;2022-11-03T17:33:27;14.50;75.60
3418;DHT22;1722;51.316;12.370;2022-11-03T17:36:35;14.50;75.60
3418;DHT22;1722;51.316;12.370;2022-11-03T17:43:55;14.40;75.70